Armadores I — SY8463 — position and weather

sailwx.info

Track history (hours):
 
Tides and Currents Weather Stations Pressure Air Temp Water Temp Dewpoint Dewpoint Depression Visibility Wind Speed Wind Dir Waves Ship Positions

Armadores I

Last reported at 2014-Oct-21 03:34 UTC. Time now 2014-Oct-21 03:59 UTC.
Position N 37°57' E 023°36'.

Length 32 m; draft 5.3 m.

Type: Tug. MMSI: 240694000.

Date/timePositionNaut miles runAvg speedWind from/ knotsBaromVisibWave heightAir tempDewpointWater temp
2014-Oct-21 03:34N 37°57' E 023°36'0 0.0
2014-Oct-21 02:33N 37°57' E 023°36'0 0.0
2014-Oct-21 01:33N 37°57' E 023°36'0 0.0
2014-Oct-21 00:34N 37°57' E 023°36'1 0.8
2014-Oct-20 23:33N 37°57' E 023°35'1 0.8
2014-Oct-20 22:33N 37°57' E 023°36'0 0.2
2014-Oct-20 21:33N 37°57' E 023°36'1 0.5
2014-Oct-20 20:33N 37°57' E 023°37'0 0.0
2014-Oct-20 19:34N 37°57' E 023°37'0 0.0
2014-Oct-20 18:34N 37°57' E 023°37'0 0.3
2014-Oct-20 17:34N 37°57' E 023°36'1 0.7
2014-Oct-20 16:33N 37°57' E 023°35'1 0.5
2014-Oct-20 15:33N 37°57' E 023°36'0 0.5
2014-Oct-20 14:33N 37°57' E 023°37'0 0.0
2014-Oct-20 13:33N 37°57' E 023°37'0 0.0
2014-Oct-20 12:33N 37°57' E 023°37'0 0.0
2014-Oct-20 11:34N 37°57' E 023°37'0 0.0
2014-Oct-20 10:34N 37°57' E 023°37'0 0.0
2014-Oct-20 07:29N 37°57' E 023°37'4 4.0
2014-Oct-20 06:34N 38°00' E 023°33'2 2.2
2014-Oct-20 05:34N 38°01' E 023°36'4 4.2
2014-Oct-20 04:34N 37°57' E 023°35'0 0.5
2014-Oct-20 03:34N 37°57' E 023°36'1 0.7
2014-Oct-20 02:34N 37°57' E 023°37'0 0.0
2014-Oct-20 01:33N 37°57' E 023°37'0 0.0
2014-Oct-20 00:33N 37°57' E 023°37'0 0.0
2014-Oct-19 23:33N 37°57' E 023°37'0 0.0
2014-Oct-19 22:33N 37°57' E 023°37'0 0.0
2014-Oct-19 21:34N 37°57' E 023°37'0 0.0
2014-Oct-19 20:33N 37°57' E 023°37'0 0.0
2014-Oct-19 19:33N 37°57' E 023°37'0 0.0
2014-Oct-19 18:34N 37°57' E 023°37'0 0.0
2014-Oct-19 17:34N 37°57' E 023°37'1 1.1
2014-Oct-19 16:33N 37°56' E 023°36'1 1.0
2014-Oct-19 15:33N 37°57' E 023°35'1 1.1
2014-Oct-19 14:33N 37°57' E 023°37'0 0.0
2014-Oct-19 13:33N 37°57' E 023°37'0 0.0
2014-Oct-19 12:34N 37°57' E 023°37'0 0.0
2014-Oct-19 11:34N 37°57' E 023°37'0 0.0
2014-Oct-19 10:34N 37°57' E 023°37'0 0.0
2014-Oct-19 09:34N 37°57' E 023°37'0 0.0
2014-Oct-19 08:33N 37°57' E 023°37'0 0.0
2014-Oct-19 07:34N 37°57' E 023°37'0 0.0
2014-Oct-19 06:33N 37°57' E 023°37'0 0.0
2014-Oct-19 05:34N 37°57' E 023°37'0 0.0
2014-Oct-19 04:34N 37°57' E 023°37'1 0.7
2014-Oct-19 03:33N 37°57' E 023°36'1 0.7
2014-Oct-19 02:33N 37°57' E 023°37'0 0.0
2014-Oct-19 01:34N 37°57' E 023°37'0 0.0
2014-Oct-19 00:34N 37°57' E 023°37'0 0.0
2014-Oct-18 23:34N 37°57' E 023°37'0 0.0
2014-Oct-18 22:34N 37°57' E 023°37'1 1.3
2014-Oct-18 21:34N 37°57' E 023°35'1 1.4
2014-Oct-18 20:33N 37°57' E 023°37'6 5.7
2014-Oct-18 19:34N 38°00' E 023°31'6 6.4
2014-Oct-18 18:33N 37°58' E 023°23'1 1.0
2014-Oct-18 17:33N 37°58' E 023°24'2 1.6
2014-Oct-18 16:33N 37°59' E 023°25'6 6.1
2014-Oct-18 15:33N 37°58' E 023°33'3 3.0
2014-Oct-18 14:33N 37°57' E 023°37'0 0.0
2014-Oct-18 13:33N 37°57' E 023°37'0 0.0
2014-Oct-18 12:34N 37°57' E 023°37'1 0.9
2014-Oct-18 11:33N 37°57' E 023°36'1 0.9
2014-Oct-18 10:33N 37°57' E 023°35'4 4.2
2014-Oct-18 09:34N 38°01' E 023°34'1 1.2
2014-Oct-18 08:34N 38°01' E 023°35'4 3.8
2014-Oct-18 07:33N 37°58' E 023°33'1 1.0
2014-Oct-18 06:33N 37°58' E 023°34'2 1.9
2014-Oct-18 05:33N 37°57' E 023°36'0 0.4
2014-Oct-18 04:33N 37°57' E 023°37'0 0.0
2014-Oct-18 03:33N 37°57' E 023°37'0 0.0
2014-Oct-18 02:33N 37°57' E 023°37'0 0.0
2014-Oct-18 01:33N 37°57' E 023°37'0 0.0
2014-Oct-18 00:33N 37°57' E 023°37'0 0.0
2014-Oct-17 23:34N 37°57' E 023°37'0 0.0
2014-Oct-17 22:34N 37°57' E 023°37'1 1.1
2014-Oct-17 21:33N 37°57' E 023°35'1 0.7
2014-Oct-17 20:34N 37°57' E 023°36'2 1.7
2014-Oct-17 19:34N 37°58' E 023°34'0 0.0
2014-Oct-17 18:34N 37°58' E 023°34'6 5.5
2014-Oct-17 17:32N 38°00' E 023°28'4 4.4
2014-Oct-17 16:33N 37°58' E 023°23'0 0.1
2014-Oct-17 15:33N 37°58' E 023°23'2 1.9
2014-Oct-17 14:33N 37°58' E 023°25'6 6.0
2014-Oct-17 13:34N 38°00' E 023°32'4 4.4
2014-Oct-17 12:34N 37°57' E 023°36'0 0.4
2014-Oct-17 11:34N 37°57' E 023°35'0 0.0
2014-Oct-17 05:33N 37°57' E 023°35'1 1.1
2014-Oct-17 04:33N 37°57' E 023°37'0 0.0
2014-Oct-17 03:33N 37°57' E 023°37'0 0.0
2014-Oct-17 02:33N 37°57' E 023°37'0 0.0
2014-Oct-17 01:33N 37°57' E 023°37'0 0.0
2014-Oct-17 00:33N 37°57' E 023°37'0 0.0
2014-Oct-16 23:33N 37°57' E 023°37'0 0.0
2014-Oct-16 22:33N 37°57' E 023°37'0 0.0
2014-Oct-16 21:33N 37°57' E 023°37'0 0.0
2014-Oct-16 20:33N 37°57' E 023°37'1 0.7
2014-Oct-16 19:33N 37°57' E 023°36'1 0.7
2014-Oct-16 18:33N 37°57' E 023°37'0 0.0
2014-Oct-16 17:33N 37°57' E 023°37'0 0.1
2014-Oct-16 16:33N 37°58' E 023°36'0 0.1
2014-Oct-16 15:33N 37°57' E 023°37'0 0.0
2014-Oct-16 14:34N 37°57' E 023°37'0 0.0
2014-Oct-16 13:33N 37°57' E 023°37'1 1.1
2014-Oct-16 12:33N 37°57' E 023°35'1 0.5
2014-Oct-16 11:33N 37°57' E 023°36'1 0.6
2014-Oct-16 10:33N 37°57' E 023°37'0 0.0
2014-Oct-16 05:34N 37°57' E 023°37'1 1.5
2014-Oct-16 04:34N 37°56' E 023°37'1 0.9
2014-Oct-16 03:34N 37°55' E 023°36'2 1.7
2014-Oct-16 02:34N 37°56' E 023°38'2 1.6
2014-Oct-16 01:34N 37°57' E 023°37'0 0.0
2014-Oct-16 00:33N 37°57' E 023°37'0 0.0
2014-Oct-15 23:33N 37°57' E 023°37'0 0.0
2014-Oct-15 22:30N 37°57' E 023°37'0 0.0
2014-Oct-15 21:33N 37°57' E 023°37'0 0.0
2014-Oct-15 20:33N 37°57' E 023°37'1 0.7
2014-Oct-15 19:33N 37°57' E 023°36'0 0.3
2014-Oct-15 18:33N 37°57' E 023°35'1 1.0
2014-Oct-15 17:33N 37°57' E 023°37'0 0.0
2014-Oct-15 16:33N 37°57' E 023°37'0 0.0
2014-Oct-15 15:33N 37°57' E 023°37'0 0.0
2014-Oct-15 14:33N 37°57' E 023°37'0 0.0
2014-Oct-15 13:33N 37°57' E 023°37'0 0.0
2014-Oct-15 12:33N 37°57' E 023°37'0 0.0
2014-Oct-15 11:33N 37°57' E 023°37'0 0.0
2014-Oct-15 10:33N 37°57' E 023°37'1 1.1
2014-Oct-15 09:33N 37°57' E 023°35'1 1.2
2014-Oct-15 08:34N 37°57' E 023°37'0 0.0
2014-Oct-15 07:33N 37°57' E 023°37'0 0.0
2014-Oct-15 06:33N 37°57' E 023°37'0 0.0
2014-Oct-15 05:33N 37°57' E 023°37'0 0.0
2014-Oct-15 04:33N 37°57' E 023°37'1 0.7
2014-Oct-15 03:33N 37°57' E 023°36'1 0.7
2014-Oct-15 02:33N 37°57' E 023°37'0 0.0
2014-Oct-15 01:33N 37°57' E 023°37'0 0.0
2014-Oct-15 00:33N 37°57' E 023°37'1 1.0
2014-Oct-14 23:33N 37°57' E 023°35'1 1.1
2014-Oct-14 22:33N 37°57' E 023°37'0 0.0
2014-Oct-14 21:34N 37°57' E 023°37'0 0.0
2014-Oct-14 20:33N 37°57' E 023°37'0 0.0
2014-Oct-14 19:33N 37°57' E 023°37'0 0.0
2014-Oct-14 18:33N 37°57' E 023°37'2 1.8
2014-Oct-14 17:33N 37°56' E 023°36'1 0.8
2014-Oct-14 16:33N 37°56' E 023°36'1 1.1
2014-Oct-14 15:33N 37°57' E 023°37'0 0.0
2014-Oct-14 14:33N 37°57' E 023°37'1 1.1
2014-Oct-14 13:33N 37°57' E 023°35'1 1.0
2014-Oct-14 12:33N 37°57' E 023°37'1 1.1
2014-Oct-14 11:33N 37°57' E 023°35'1 0.5
2014-Oct-14 10:33N 37°57' E 023°35'0 0.3
2014-Oct-14 09:33N 37°57' E 023°35'1 1.0
2014-Oct-14 08:33N 37°56' E 023°36'2 2.1
2014-Oct-14 07:33N 37°58' E 023°34'0 0.4
2014-Oct-14 06:33N 37°58' E 023°33'3 2.6
2014-Oct-14 05:34N 37°57' E 023°37'0 0.0
2014-Oct-14 04:33N 37°57' E 023°37'0 0.0
2014-Oct-14 03:33N 37°57' E 023°37'0 0.0
2014-Oct-14 02:33N 37°57' E 023°37'0 0.0
2014-Oct-14 01:33N 37°57' E 023°37'0 0.0
2014-Oct-14 00:24N 37°57' E 023°37'0 0.0
2014-Oct-13 23:33N 37°57' E 023°37'0 0.0
2014-Oct-13 22:32N 37°57' E 023°37'0 0.0
2014-Oct-13 21:33N 37°57' E 023°37'0 0.0
2014-Oct-13 20:34N 37°57' E 023°37'0 0.0
2014-Oct-13 19:34N 37°57' E 023°37'1 0.7
2014-Oct-13 18:33N 37°57' E 023°36'1 0.7
2014-Oct-13 17:33N 37°57' E 023°37'0 0.0
2014-Oct-13 16:33N 37°57' E 023°37'0 0.0
2014-Oct-13 15:33N 37°57' E 023°37'0 0.3
2014-Oct-13 14:33N 37°57' E 023°36'2 1.6
2014-Oct-13 13:34N 37°56' E 023°37'0 0.0
2014-Oct-13 12:33N 37°56' E 023°37'2 1.8
2014-Oct-13 11:33N 37°57' E 023°36'1 0.4
2014-Oct-13 08:33N 37°57' E 023°34'4 4.1
2014-Oct-13 07:28N 38°02' E 023°36'0 0.2
2014-Oct-13 06:32N 38°01' E 023°35'3 3.3
2014-Oct-13 05:33N 37°59' E 023°33'3 3.1
2014-Oct-13 04:33N 37°56' E 023°35'1 1.2
2014-Oct-13 03:33N 37°57' E 023°35'1 1.1
2014-Oct-13 02:33N 37°57' E 023°37'0 0.0
2014-Oct-13 01:33N 37°57' E 023°37'0 0.0
2014-Oct-13 00:34N 37°57' E 023°37'0 0.0
2014-Oct-12 23:33N 37°57' E 023°37'0 0.0
2014-Oct-12 22:33N 37°57' E 023°37'0 0.0
2014-Oct-12 21:33N 37°57' E 023°37'0 0.0
2014-Oct-12 20:33N 37°57' E 023°37'0 0.0
2014-Oct-12 19:33N 37°57' E 023°37'0 0.0
2014-Oct-12 18:33N 37°57' E 023°37'0 0.0
2014-Oct-12 17:34N 37°57' E 023°37'0 0.0
2014-Oct-12 16:34N 37°57' E 023°37'0 0.0
2014-Oct-12 15:34N 37°57' E 023°37'1 1.0
2014-Oct-12 14:34N 37°57' E 023°35'1 0.6
2014-Oct-12 13:33N 37°57' E 023°36'0 0.0
2014-Oct-12 12:34N 37°57' E 023°36'1 0.6
2014-Oct-12 11:34N 37°57' E 023°35'1 0.5
2014-Oct-12 10:34N 37°57' E 023°36'1 0.6
2014-Oct-12 09:33N 37°57' E 023°35'1 1.1
2014-Oct-12 08:34N 37°57' E 023°37'1 1.2
2014-Oct-12 07:34N 37°57' E 023°35'2 1.6
2014-Oct-12 06:33N 37°56' E 023°36'1 1.1
2014-Oct-12 05:34N 37°57' E 023°35'1 0.7
2014-Oct-12 04:33N 37°57' E 023°36'1 0.8
2014-Oct-12 03:34N 37°57' E 023°36'0 0.4
2014-Oct-12 02:34N 37°57' E 023°37'0 0.0
2014-Oct-12 01:33N 37°57' E 023°37'0 0.0
2014-Oct-12 00:33N 37°57' E 023°37'0 0.0
2014-Oct-11 23:33N 37°57' E 023°37'0 0.0
2014-Oct-11 22:34N 37°57' E 023°37'0 0.0
2014-Oct-11 21:33N 37°57' E 023°37'0 0.0
2014-Oct-11 20:33N 37°57' E 023°37'2 2.0
2014-Oct-11 19:33N 37°55' E 023°36'2 1.6
2014-Oct-11 18:33N 37°57' E 023°36'1 0.6
2014-Oct-11 17:33N 37°57' E 023°35'1 1.3
2014-Oct-11 16:33N 37°57' E 023°37'0 0.0
2014-Oct-11 15:33N 37°57' E 023°37'1 1.5
2014-Oct-11 14:34N 37°56' E 023°37'0 0.0
2014-Oct-11 13:33N 37°56' E 023°37'1 0.6
2014-Oct-11 12:33N 37°56' E 023°38'3 2.8
2014-Oct-11 11:33N 37°57' E 023°35'4 4.4
2014-Oct-11 10:33N 38°02' E 023°36'4 3.9
2014-Oct-11 09:33N 37°58' E 023°33'3 3.1
2014-Oct-11 08:33N 37°57' E 023°37'0 0.0
2014-Oct-11 07:33N 37°57' E 023°37'0 0.0
2014-Oct-11 06:33N 37°57' E 023°37'0 0.2
2014-Oct-11 05:33N 37°58' E 023°36'1 0.9
2014-Oct-11 04:33N 37°57' E 023°36'1 0.9
2014-Oct-11 03:34N 37°57' E 023°37'  
Track history (hours):
 
Tides and Currents Weather Stations Pressure Air Temp Water Temp Dewpoint Dewpoint Depression Visibility Wind Speed Wind Dir Waves Ship Positions

Armadores I

Last reported at 2014-Oct-21 03:34 UTC. Time now 2014-Oct-21 03:59 UTC.
Position N 37°57' E 023°36'.

Length 32 m; draft 5.3 m.

Type: Tug. MMSI: 240694000.

Date/timePositionNaut miles runAvg speedWind from/ knotsBaromVisibWave heightAir tempDewpointWater temp
2014-Oct-21 03:34N 37°57' E 023°36'0 0.0
2014-Oct-21 02:33N 37°57' E 023°36'0 0.0
2014-Oct-21 01:33N 37°57' E 023°36'0 0.0
2014-Oct-21 00:34N 37°57' E 023°36'1 0.8
2014-Oct-20 23:33N 37°57' E 023°35'1 0.8
2014-Oct-20 22:33N 37°57' E 023°36'0 0.2
2014-Oct-20 21:33N 37°57' E 023°36'1 0.5
2014-Oct-20 20:33N 37°57' E 023°37'0 0.0
2014-Oct-20 19:34N 37°57' E 023°37'0 0.0
2014-Oct-20 18:34N 37°57' E 023°37'0 0.3
2014-Oct-20 17:34N 37°57' E 023°36'1 0.7
2014-Oct-20 16:33N 37°57' E 023°35'1 0.5
2014-Oct-20 15:33N 37°57' E 023°36'0 0.5
2014-Oct-20 14:33N 37°57' E 023°37'0 0.0
2014-Oct-20 13:33N 37°57' E 023°37'0 0.0
2014-Oct-20 12:33N 37°57' E 023°37'0 0.0
2014-Oct-20 11:34N 37°57' E 023°37'0 0.0
2014-Oct-20 10:34N 37°57' E 023°37'0 0.0
2014-Oct-20 07:29N 37°57' E 023°37'4 4.0
2014-Oct-20 06:34N 38°00' E 023°33'2 2.2
2014-Oct-20 05:34N 38°01' E 023°36'4 4.2
2014-Oct-20 04:34N 37°57' E 023°35'0 0.5
2014-Oct-20 03:34N 37°57' E 023°36'1 0.7
2014-Oct-20 02:34N 37°57' E 023°37'0 0.0
2014-Oct-20 01:33N 37°57' E 023°37'0 0.0
2014-Oct-20 00:33N 37°57' E 023°37'0 0.0
2014-Oct-19 23:33N 37°57' E 023°37'0 0.0
2014-Oct-19 22:33N 37°57' E 023°37'0 0.0
2014-Oct-19 21:34N 37°57' E 023°37'0 0.0
2014-Oct-19 20:33N 37°57' E 023°37'0 0.0
2014-Oct-19 19:33N 37°57' E 023°37'0 0.0
2014-Oct-19 18:34N 37°57' E 023°37'0 0.0
2014-Oct-19 17:34N 37°57' E 023°37'1 1.1
2014-Oct-19 16:33N 37°56' E 023°36'1 1.0
2014-Oct-19 15:33N 37°57' E 023°35'1 1.1
2014-Oct-19 14:33N 37°57' E 023°37'0 0.0
2014-Oct-19 13:33N 37°57' E 023°37'0 0.0
2014-Oct-19 12:34N 37°57' E 023°37'0 0.0
2014-Oct-19 11:34N 37°57' E 023°37'0 0.0
2014-Oct-19 10:34N 37°57' E 023°37'0 0.0
2014-Oct-19 09:34N 37°57' E 023°37'0 0.0
2014-Oct-19 08:33N 37°57' E 023°37'0 0.0
2014-Oct-19 07:34N 37°57' E 023°37'0 0.0
2014-Oct-19 06:33N 37°57' E 023°37'0 0.0
2014-Oct-19 05:34N 37°57' E 023°37'0 0.0
2014-Oct-19 04:34N 37°57' E 023°37'1 0.7
2014-Oct-19 03:33N 37°57' E 023°36'1 0.7
2014-Oct-19 02:33N 37°57' E 023°37'0 0.0
2014-Oct-19 01:34N 37°57' E 023°37'0 0.0
2014-Oct-19 00:34N 37°57' E 023°37'0 0.0
2014-Oct-18 23:34N 37°57' E 023°37'0 0.0
2014-Oct-18 22:34N 37°57' E 023°37'1 1.3
2014-Oct-18 21:34N 37°57' E 023°35'1 1.4
2014-Oct-18 20:33N 37°57' E 023°37'6 5.7
2014-Oct-18 19:34N 38°00' E 023°31'6 6.4
2014-Oct-18 18:33N 37°58' E 023°23'1 1.0
2014-Oct-18 17:33N 37°58' E 023°24'2 1.6
2014-Oct-18 16:33N 37°59' E 023°25'6 6.1
2014-Oct-18 15:33N 37°58' E 023°33'3 3.0
2014-Oct-18 14:33N 37°57' E 023°37'0 0.0
2014-Oct-18 13:33N 37°57' E 023°37'0 0.0
2014-Oct-18 12:34N 37°57' E 023°37'1 0.9
2014-Oct-18 11:33N 37°57' E 023°36'1 0.9
2014-Oct-18 10:33N 37°57' E 023°35'4 4.2
2014-Oct-18 09:34N 38°01' E 023°34'1 1.2
2014-Oct-18 08:34N 38°01' E 023°35'4 3.8
2014-Oct-18 07:33N 37°58' E 023°33'1 1.0
2014-Oct-18 06:33N 37°58' E 023°34'2 1.9
2014-Oct-18 05:33N 37°57' E 023°36'0 0.4
2014-Oct-18 04:33N 37°57' E 023°37'0 0.0
2014-Oct-18 03:33N 37°57' E 023°37'0 0.0
2014-Oct-18 02:33N 37°57' E 023°37'0 0.0
2014-Oct-18 01:33N 37°57' E 023°37'0 0.0
2014-Oct-18 00:33N 37°57' E 023°37'0 0.0
2014-Oct-17 23:34N 37°57' E 023°37'0 0.0
2014-Oct-17 22:34N 37°57' E 023°37'1 1.1
2014-Oct-17 21:33N 37°57' E 023°35'1 0.7
2014-Oct-17 20:34N 37°57' E 023°36'2 1.7
2014-Oct-17 19:34N 37°58' E 023°34'0 0.0
2014-Oct-17 18:34N 37°58' E 023°34'6 5.5
2014-Oct-17 17:32N 38°00' E 023°28'4 4.4
2014-Oct-17 16:33N 37°58' E 023°23'0 0.1
2014-Oct-17 15:33N 37°58' E 023°23'2 1.9
2014-Oct-17 14:33N 37°58' E 023°25'6 6.0
2014-Oct-17 13:34N 38°00' E 023°32'4 4.4
2014-Oct-17 12:34N 37°57' E 023°36'0 0.4
2014-Oct-17 11:34N 37°57' E 023°35'0 0.0
2014-Oct-17 05:33N 37°57' E 023°35'1 1.1
2014-Oct-17 04:33N 37°57' E 023°37'0 0.0
2014-Oct-17 03:33N 37°57' E 023°37'0 0.0
2014-Oct-17 02:33N 37°57' E 023°37'0 0.0
2014-Oct-17 01:33N 37°57' E 023°37'0 0.0
2014-Oct-17 00:33N 37°57' E 023°37'0 0.0
2014-Oct-16 23:33N 37°57' E 023°37'0 0.0
2014-Oct-16 22:33N 37°57' E 023°37'0 0.0
2014-Oct-16 21:33N 37°57' E 023°37'0 0.0
2014-Oct-16 20:33N 37°57' E 023°37'1 0.7
2014-Oct-16 19:33N 37°57' E 023°36'1 0.7
2014-Oct-16 18:33N 37°57' E 023°37'0 0.0
2014-Oct-16 17:33N 37°57' E 023°37'0 0.1
2014-Oct-16 16:33N 37°58' E 023°36'0 0.1
2014-Oct-16 15:33N 37°57' E 023°37'0 0.0
2014-Oct-16 14:34N 37°57' E 023°37'0 0.0
2014-Oct-16 13:33N 37°57' E 023°37'1 1.1
2014-Oct-16 12:33N 37°57' E 023°35'1 0.5
2014-Oct-16 11:33N 37°57' E 023°36'1 0.6
2014-Oct-16 10:33N 37°57' E 023°37'0 0.0
2014-Oct-16 05:34N 37°57' E 023°37'1 1.5
2014-Oct-16 04:34N 37°56' E 023°37'1 0.9
2014-Oct-16 03:34N 37°55' E 023°36'2 1.7
2014-Oct-16 02:34N 37°56' E 023°38'2 1.6
2014-Oct-16 01:34N 37°57' E 023°37'0 0.0
2014-Oct-16 00:33N 37°57' E 023°37'0 0.0
2014-Oct-15 23:33N 37°57' E 023°37'0 0.0
2014-Oct-15 22:30N 37°57' E 023°37'0 0.0
2014-Oct-15 21:33N 37°57' E 023°37'0 0.0
2014-Oct-15 20:33N 37°57' E 023°37'1 0.7
2014-Oct-15 19:33N 37°57' E 023°36'0 0.3
2014-Oct-15 18:33N 37°57' E 023°35'1 1.0
2014-Oct-15 17:33N 37°57' E 023°37'0 0.0
2014-Oct-15 16:33N 37°57' E 023°37'0 0.0
2014-Oct-15 15:33N 37°57' E 023°37'0 0.0
2014-Oct-15 14:33N 37°57' E 023°37'0 0.0
2014-Oct-15 13:33N 37°57' E 023°37'0 0.0
2014-Oct-15 12:33N 37°57' E 023°37'0 0.0
2014-Oct-15 11:33N 37°57' E 023°37'0 0.0
2014-Oct-15 10:33N 37°57' E 023°37'1 1.1
2014-Oct-15 09:33N 37°57' E 023°35'1 1.2
2014-Oct-15 08:34N 37°57' E 023°37'0 0.0
2014-Oct-15 07:33N 37°57' E 023°37'0 0.0
2014-Oct-15 06:33N 37°57' E 023°37'0 0.0
2014-Oct-15 05:33N 37°57' E 023°37'0 0.0
2014-Oct-15 04:33N 37°57' E 023°37'1 0.7
2014-Oct-15 03:33N 37°57' E 023°36'1 0.7
2014-Oct-15 02:33N 37°57' E 023°37'0 0.0
2014-Oct-15 01:33N 37°57' E 023°37'0 0.0
2014-Oct-15 00:33N 37°57' E 023°37'1 1.0
2014-Oct-14 23:33N 37°57' E 023°35'1 1.1
2014-Oct-14 22:33N 37°57' E 023°37'0 0.0
2014-Oct-14 21:34N 37°57' E 023°37'0 0.0
2014-Oct-14 20:33N 37°57' E 023°37'0 0.0
2014-Oct-14 19:33N 37°57' E 023°37'0 0.0
2014-Oct-14 18:33N 37°57' E 023°37'2 1.8
2014-Oct-14 17:33N 37°56' E 023°36'1 0.8
2014-Oct-14 16:33N 37°56' E 023°36'1 1.1
2014-Oct-14 15:33N 37°57' E 023°37'0 0.0
2014-Oct-14 14:33N 37°57' E 023°37'1 1.1
2014-Oct-14 13:33N 37°57' E 023°35'1 1.0
2014-Oct-14 12:33N 37°57' E 023°37'1 1.1
2014-Oct-14 11:33N 37°57' E 023°35'1 0.5
2014-Oct-14 10:33N 37°57' E 023°35'0 0.3
2014-Oct-14 09:33N 37°57' E 023°35'1 1.0
2014-Oct-14 08:33N 37°56' E 023°36'2 2.1
2014-Oct-14 07:33N 37°58' E 023°34'0 0.4
2014-Oct-14 06:33N 37°58' E 023°33'3 2.6
2014-Oct-14 05:34N 37°57' E 023°37'0 0.0
2014-Oct-14 04:33N 37°57' E 023°37'0 0.0
2014-Oct-14 03:33N 37°57' E 023°37'0 0.0
2014-Oct-14 02:33N 37°57' E 023°37'0 0.0
2014-Oct-14 01:33N 37°57' E 023°37'0 0.0
2014-Oct-14 00:24N 37°57' E 023°37'0 0.0
2014-Oct-13 23:33N 37°57' E 023°37'0 0.0
2014-Oct-13 22:32N 37°57' E 023°37'0 0.0
2014-Oct-13 21:33N 37°57' E 023°37'0 0.0
2014-Oct-13 20:34N 37°57' E 023°37'0 0.0
2014-Oct-13 19:34N 37°57' E 023°37'1 0.7
2014-Oct-13 18:33N 37°57' E 023°36'1 0.7
2014-Oct-13 17:33N 37°57' E 023°37'0 0.0
2014-Oct-13 16:33N 37°57' E 023°37'0 0.0
2014-Oct-13 15:33N 37°57' E 023°37'0 0.3
2014-Oct-13 14:33N 37°57' E 023°36'2 1.6
2014-Oct-13 13:34N 37°56' E 023°37'0 0.0
2014-Oct-13 12:33N 37°56' E 023°37'2 1.8
2014-Oct-13 11:33N 37°57' E 023°36'1 0.4
2014-Oct-13 08:33N 37°57' E 023°34'4 4.1
2014-Oct-13 07:28N 38°02' E 023°36'0 0.2
2014-Oct-13 06:32N 38°01' E 023°35'3 3.3
2014-Oct-13 05:33N 37°59' E 023°33'3 3.1
2014-Oct-13 04:33N 37°56' E 023°35'1 1.2
2014-Oct-13 03:33N 37°57' E 023°35'1 1.1
2014-Oct-13 02:33N 37°57' E 023°37'0 0.0
2014-Oct-13 01:33N 37°57' E 023°37'0 0.0
2014-Oct-13 00:34N 37°57' E 023°37'0 0.0
2014-Oct-12 23:33N 37°57' E 023°37'0 0.0
2014-Oct-12 22:33N 37°57' E 023°37'0 0.0
2014-Oct-12 21:33N 37°57' E 023°37'0 0.0
2014-Oct-12 20:33N 37°57' E 023°37'0 0.0
2014-Oct-12 19:33N 37°57' E 023°37'0 0.0
2014-Oct-12 18:33N 37°57' E 023°37'0 0.0
2014-Oct-12 17:34N 37°57' E 023°37'0 0.0
2014-Oct-12 16:34N 37°57' E 023°37'0 0.0
2014-Oct-12 15:34N 37°57' E 023°37'1 1.0
2014-Oct-12 14:34N 37°57' E 023°35'1 0.6
2014-Oct-12 13:33N 37°57' E 023°36'0 0.0
2014-Oct-12 12:34N 37°57' E 023°36'1 0.6
2014-Oct-12 11:34N 37°57' E 023°35'1 0.5
2014-Oct-12 10:34N 37°57' E 023°36'1 0.6
2014-Oct-12 09:33N 37°57' E 023°35'1 1.1
2014-Oct-12 08:34N 37°57' E 023°37'1 1.2
2014-Oct-12 07:34N 37°57' E 023°35'2 1.6
2014-Oct-12 06:33N 37°56' E 023°36'1 1.1
2014-Oct-12 05:34N 37°57' E 023°35'1 0.7
2014-Oct-12 04:33N 37°57' E 023°36'1 0.8
2014-Oct-12 03:34N 37°57' E 023°36'0 0.4
2014-Oct-12 02:34N 37°57' E 023°37'0 0.0
2014-Oct-12 01:33N 37°57' E 023°37'0 0.0
2014-Oct-12 00:33N 37°57' E 023°37'0 0.0
2014-Oct-11 23:33N 37°57' E 023°37'0 0.0
2014-Oct-11 22:34N 37°57' E 023°37'0 0.0
2014-Oct-11 21:33N 37°57' E 023°37'0 0.0
2014-Oct-11 20:33N 37°57' E 023°37'2 2.0
2014-Oct-11 19:33N 37°55' E 023°36'2 1.6
2014-Oct-11 18:33N 37°57' E 023°36'1 0.6
2014-Oct-11 17:33N 37°57' E 023°35'1 1.3
2014-Oct-11 16:33N 37°57' E 023°37'0 0.0
2014-Oct-11 15:33N 37°57' E 023°37'1 1.5
2014-Oct-11 14:34N 37°56' E 023°37'0 0.0
2014-Oct-11 13:33N 37°56' E 023°37'1 0.6
2014-Oct-11 12:33N 37°56' E 023°38'3 2.8
2014-Oct-11 11:33N 37°57' E 023°35'4 4.4
2014-Oct-11 10:33N 38°02' E 023°36'4 3.9
2014-Oct-11 09:33N 37°58' E 023°33'3 3.1
2014-Oct-11 08:33N 37°57' E 023°37'0 0.0
2014-Oct-11 07:33N 37°57' E 023°37'0 0.0
2014-Oct-11 06:33N 37°57' E 023°37'0 0.2
2014-Oct-11 05:33N 37°58' E 023°36'1 0.9
2014-Oct-11 04:33N 37°57' E 023°36'1 0.9
2014-Oct-11 03:34N 37°57' E 023°37'  

Dump ship's entire track history